Time;durP1;ratioP1;P1;durP2;ratioP2;P2;SDS_P1;SDS_P2;PMS_P1;PMS_P2;Temp;Humidity;BMP_temperature;BMP_pressure;BME280_temperature;BME280_humidity;BME280_pressure;Samples;Min_cycle;Max_cycle;Signal;HPM_P1;HPM_P2
2021/11/24 00:00:17;;;;;;;8.75;4.70;;;;;;;-145.06;0.00;60892.56;4837367;28;20025;-88
2021/11/24 00:02:56;;;;;;;9.70;4.40;;;;;;;7.68;0.00;60892.56;4836929;28;20394;-88
2021/11/24 00:05:35;;;;;;;7.67;4.27;;;;;;;-145.06;0.00;60892.56;4830672;28;20046;-88
2021/11/24 00:08:20;;;;;;;7.65;4.18;;;;;;;-145.06;0.00;60892.56;4834287;28;20273;-88
2021/11/24 00:10:59;;;;;;;9.20;4.93;;;;;;;-145.06;0.00;60892.56;4831455;28;20038;-88
2021/11/24 00:13:41;;;;;;;7.30;4.10;;;;;;;-145.06;0.00;60892.56;4829850;28;20038;-87
2021/11/24 00:16:20;;;;;;;10.57;4.80;;;;;;;-145.06;0.00;60892.56;4836219;28;20045;-88
2021/11/24 00:19:02;;;;;;;8.65;4.70;;;;;;;-145.06;0.00;60892.56;4835297;28;20113;-88
2021/11/24 00:21:41;;;;;;;10.77;4.78;;;;;;;-145.06;0.00;60892.56;4829933;28;20511;-89
2021/11/24 00:24:21;;;;;;;7.27;4.20;;;;;;;-145.06;0.00;60892.56;4836561;28;20734;-87
2021/11/24 00:27:03;;;;;;;5.97;3.75;;;;;;;-145.06;0.00;60892.56;4834530;28;20272;-88
2021/11/24 00:29:42;;;;;;;8.00;4.45;;;;;;;-145.06;0.00;60892.56;4826038;28;20029;-88
2021/11/24 00:32:21;;;;;;;6.82;4.25;;;;;;;-145.06;0.00;60892.56;4827375;28;20124;-88
2021/11/24 00:35:01;;;;;;;8.38;4.30;;;;;;;-145.06;0.00;60892.56;4832859;28;20476;-88
2021/11/24 00:37:40;;;;;;;8.35;4.40;;;;;;;-145.06;0.00;60892.56;4833149;28;20487;-88
2021/11/24 00:40:19;;;;;;;8.27;4.38;;;;;;;-145.06;0.00;60892.56;4837803;28;20034;-88
2021/11/24 00:42:58;;;;;;;8.57;5.07;;;;;;;-145.06;0.00;60892.56;4830400;28;20045;-88
2021/11/24 00:45:37;;;;;;;8.87;4.83;;;;;;;-145.06;0.00;60892.56;4837287;28;20268;-87
2021/11/24 00:48:16;;;;;;;8.02;4.80;;;;;;;-145.06;0.00;60892.56;4836472;28;20754;-88
2021/11/24 00:50:55;;;;;;;7.15;4.40;;;;;;;-145.06;0.00;60892.56;4837219;28;20042;-88
2021/11/24 00:53:34;;;;;;;8.32;4.68;;;;;;;-145.06;0.00;60892.56;4836508;28;20563;-88
2021/11/24 00:56:13;;;;;;;8.18;4.43;;;;;;;-145.06;0.00;60892.56;4830703;28;20038;-89
2021/11/24 00:58:52;;;;;;;7.50;4.43;;;;;;;-145.06;0.00;60892.56;4835172;28;20033;-88
2021/11/24 01:01:32;;;;;;;9.07;4.65;;;;;;;-145.06;0.00;60892.56;4834066;28;20372;-88
2021/11/24 01:04:10;;;;;;;6.47;4.22;;;;;;;-145.06;0.00;60892.56;4836046;28;20061;-88
2021/11/24 01:06:50;;;;;;;7.53;4.30;;;;;;;-145.06;0.00;60892.56;4836762;28;20034;-88
2021/11/24 01:09:32;;;;;;;7.35;4.20;;;;;;;-145.06;0.00;60892.56;4827318;28;20029;-88
2021/11/24 01:12:11;;;;;;;6.72;3.85;;;;;;;-145.06;0.00;60892.56;4827637;28;20034;-87
2021/11/24 01:14:51;;;;;;;7.82;4.60;;;;;;;-145.06;0.00;60892.56;4832906;28;20479;-88
2021/11/24 01:17:30;;;;;;;7.72;4.68;;;;;;;-145.06;0.00;60892.56;4833325;28;20038;-88
2021/11/24 01:20:10;;;;;;;7.45;4.35;;;;;;;-145.06;0.00;60892.56;4836294;28;20049;-88
2021/11/24 01:22:49;;;;;;;7.20;4.25;;;;;;;-145.06;0.00;60892.56;4832052;28;20033;-88
2021/11/24 01:25:29;;;;;;;9.43;4.40;;;;;;;-145.06;0.00;60892.56;4833468;28;20042;-89
2021/11/24 01:28:08;;;;;;;;;;;;;;;-145.06;0.00;60892.56;4836392;28;20038;-88
2021/11/24 01:30:48;;;;;;;7.60;3.90;;;;;;;-145.06;0.00;60892.56;4835326;28;20015;-88
2021/11/24 01:33:26;;;;;;;7.45;3.55;;;;;;;-145.06;0.00;60892.56;4837440;28;20030;-87
2021/11/24 01:36:06;;;;;;;8.68;3.92;;;;;;;-145.06;0.00;60892.56;4831903;28;20046;-88
2021/11/24 01:39:05;;;;;;;6.90;3.97;;;;;;;-145.06;0.00;60892.56;4831498;28;20415;-88
2021/11/24 01:41:44;;;;;;;7.70;4.27;;;;;;;-145.06;0.00;60892.56;4829866;28;20034;-88
2021/11/24 01:44:28;;;;;;;7.38;4.05;;;;;;;-145.06;0.00;60892.56;4838415;28;20261;-87
2021/11/24 01:47:09;;;;;;;8.57;4.20;;;;;;;-145.06;0.00;60892.56;4834698;28;20037;-89
2021/11/24 01:49:48;;;;;;;7.25;3.80;;;;;;;-145.06;0.00;60892.56;4833338;28;20030;-89
2021/11/24 01:52:27;;;;;;;7.38;4.35;;;;;;;-145.06;0.00;60892.56;4835374;28;20034;-88
2021/11/24 01:55:08;;;;;;;7.13;4.10;;;;;;;-145.06;0.00;60892.56;4835644;28;20038;-88
2021/11/24 01:57:51;;;;;;;8.13;4.68;;;;;;;-145.06;0.00;60892.56;4837893;28;20277;-87
2021/11/24 02:00:34;;;;;;;8.30;4.38;;;;;;;-145.06;0.00;60892.56;4835794;28;20025;-89
2021/11/24 02:03:13;;;;;;;7.20;4.32;;;;;;;-145.06;0.00;60892.56;4830304;28;20025;-88
2021/11/24 02:05:53;;;;;;;8.40;4.43;;;;;;;-145.06;0.00;60892.56;4835939;28;20034;-89
2021/11/24 02:08:34;;;;;;;6.43;4.30;;;;;;;-145.06;0.00;60892.56;4826874;28;20037;-87
2021/11/24 02:11:13;;;;;;;7.95;4.88;;;;;;;-145.06;0.00;60892.56;4836690;28;20042;-88
2021/11/24 02:13:52;;;;;;;8.32;4.50;;;;;;;-145.06;0.00;60892.56;4836545;28;20057;-88
2021/11/24 02:16:32;;;;;;;7.78;4.68;;;;;;;-145.06;0.00;60892.56;4831539;28;20062;-87
2021/11/24 02:19:17;;;;;;;;;;;;;;;-145.06;0.00;60892.56;4835203;28;20022;-88
2021/11/24 02:21:58;;;;;;;6.28;3.55;;;;;;;-145.06;0.00;60892.56;4834684;28;19913;-88
2021/11/24 02:24:45;;;;;;;6.75;3.95;;;;;;;-145.06;0.00;60892.56;4830133;28;20057;-88
2021/11/24 02:27:32;;;;;;;6.22;3.78;;;;;;;-145.06;0.00;60892.56;4827851;28;20034;-88
2021/11/24 02:30:17;;;;;;;6.22;3.65;;;;;;;-145.06;0.00;60892.56;4829373;28;20030;-88
2021/11/24 02:33:00;;;;;;;6.57;4.00;;;;;;;-145.06;0.00;60892.56;4832319;28;20112;-88
2021/11/24 02:35:44;;;;;;;5.60;3.28;;;;;;;-145.06;0.00;60892.56;4828105;28;20034;-88
2021/11/24 02:38:26;;;;;;;8.10;4.15;;;;;;;-145.06;0.00;60892.56;4837334;28;20038;-88
2021/11/24 02:41:08;;;;;;;7.00;4.05;;;;;;;-145.06;0.00;60892.56;4833742;28;20537;-88
2021/11/24 02:43:56;;;;;;;7.63;3.90;;;;;;;-145.06;0.00;60892.56;4833170;28;20034;-88
2021/11/24 02:46:38;;;;;;;7.80;4.25;;;;;;;-145.06;0.00;60892.56;4842915;28;20026;-87
2021/11/24 02:49:18;;;;;;;8.30;4.13;;;;;;;-145.06;0.00;60892.56;4842513;28;20018;-88
2021/11/24 02:51:59;;;;;;;8.40;4.60;;;;;;;-145.06;0.00;60892.56;4831160;28;20030;-87
2021/11/24 02:54:48;;;;;;;8.05;4.65;;;;;;;-145.06;0.00;60892.56;4832194;28;21613;-88
2021/11/24 02:57:33;;;;;;;7.30;4.38;;;;;;;-145.06;0.00;60892.56;4818909;28;20030;-88
2021/11/24 03:00:15;;;;;;;7.38;4.38;;;;;;;-145.06;0.00;60892.56;4834820;28;20038;-86
2021/11/24 03:03:03;;;;;;;6.90;3.88;;;;;;;-145.06;0.00;60892.56;4834382;28;20033;-88
2021/11/24 03:05:42;;;;;;;7.93;4.13;;;;;;;-145.06;0.00;60892.56;4833706;28;20042;-88
2021/11/24 03:08:21;;;;;;;9.07;4.85;;;;;;;-145.06;0.00;60892.56;4833124;28;20030;-88
2021/11/24 03:11:00;;;;;;;9.30;4.50;;;;;;;-145.06;0.00;60892.56;4836595;28;20053;-89
2021/11/24 03:13:54;;;;;;;7.38;4.20;;;;;;;-145.06;0.00;60892.56;4833254;28;20483;-88
2021/11/24 03:16:43;;;;;;;5.68;3.80;;;;;;;7.25;0.00;60892.56;4828562;28;20033;-89
2021/11/24 03:19:22;;;;;;;6.30;4.03;;;;;;;-145.06;0.00;60892.56;4831408;28;20120;-87
2021/11/24 03:22:01;;;;;;;8.30;4.20;;;;;;;-145.06;0.00;60892.56;4828494;28;20042;-88
2021/11/24 03:24:40;;;;;;;9.48;4.88;;;;;;;-145.06;0.00;60892.56;4831796;28;20038;-89
2021/11/24 03:27:20;;;;;;;8.30;4.73;;;;;;;-145.06;0.00;60892.56;4835070;28;20424;-88
2021/11/24 03:30:00;;;;;;;9.52;4.97;;;;;;;-145.06;0.00;60892.56;4829237;28;20042;-88
2021/11/24 03:32:39;;;;;;;7.07;3.85;;;;;;;-145.06;0.00;60892.56;4828351;28;20454;-88
2021/11/24 03:35:21;;;;;;;8.82;4.35;;;;;;;-145.06;0.00;60892.56;4832143;28;20117;-88
2021/11/24 03:38:02;;;;;;;6.95;4.40;;;;;;;-145.06;0.00;60892.56;4831617;28;20038;-88
2021/11/24 03:40:41;;;;;;;8.68;5.10;;;;;;;-145.06;0.00;60892.56;4832773;28;20042;-89
2021/11/24 03:43:20;;;;;;;7.20;4.37;;;;;;;-145.06;0.00;60892.56;4835587;28;20034;-88
2021/11/24 03:46:02;;;;;;;5.68;3.67;;;;;;;-145.06;0.00;60892.56;4830133;28;20065;-88
2021/11/24 03:48:41;;;;;;;6.22;3.72;;;;;;;-145.06;0.00;60892.56;4836176;28;20037;-88
2021/11/24 03:51:20;;;;;;;8.32;4.28;;;;;;;-145.06;0.00;60892.56;4835210;28;20034;-88
2021/11/24 03:53:59;;;;;;;7.50;4.63;;;;;;;-145.06;0.00;60892.56;4837407;28;20042;-87
2021/11/24 03:56:39;;;;;;;7.57;4.50;;;;;;;-145.06;0.00;60892.56;4831390;28;20372;-88
2021/11/24 03:59:17;;;;;;;8.60;4.30;;;;;;;-145.06;0.00;60892.56;4833148;28;20034;-88
2021/11/24 04:01:56;;;;;;;5.60;3.78;;;;;;;-145.06;0.00;60892.56;4837620;28;20093;-88
2021/11/24 04:04:35;;;;;;;6.50;3.97;;;;;;;-145.06;0.00;60892.56;4839013;28;20133;-87
2021/11/24 04:07:14;;;;;;;5.22;3.55;;;;;;;-145.06;0.00;60892.56;4836593;28;20120;-88
2021/11/24 04:09:53;;;;;;;6.67;4.03;;;;;;;-145.06;0.00;60892.56;4834312;28;20037;-88
2021/11/24 04:12:32;;;;;;;6.55;4.13;;;;;;;-145.06;0.00;60892.56;4829394;28;20389;-87
2021/11/24 04:15:14;;;;;;;7.80;4.63;;;;;;;-145.06;0.00;60892.56;4838224;28;20583;-88
2021/11/24 04:17:53;;;;;;;8.48;4.65;;;;;;;-145.06;0.00;60892.56;4832580;28;20406;-88
2021/11/24 04:20:33;;;;;;;7.65;4.28;;;;;;;-145.06;0.00;60892.56;4836116;28;20657;-87
2021/11/24 04:23:15;;;;;;;6.40;4.07;;;;;;;-145.06;0.00;60892.56;4834773;28;20038;-88
2021/11/24 04:25:54;;;;;;;6.72;3.90;;;;;;;-145.06;0.00;60892.56;4833077;28;20038;-89
2021/11/24 04:28:33;;;;;;;8.53;4.73;;;;;;;-145.06;0.00;60892.56;4839377;28;20030;-88
2021/11/24 04:31:11;;;;;;;6.95;4.22;;;;;;;-145.06;0.00;60892.56;4829284;28;20276;-87
2021/11/24 04:33:50;;;;;;;9.07;4.93;;;;;;;7.44;0.00;60892.56;4828250;28;20585;-88
2021/11/24 04:36:38;;;;;;;9.90;4.72;;;;;;;-145.06;0.00;60892.56;4836053;28;20281;-87
2021/11/24 04:39:17;;;;;;;7.78;4.13;;;;;;;-145.06;0.00;60892.56;4836099;28;20042;-88
2021/11/24 04:41:56;;;;;;;8.90;4.45;;;;;;;7.44;0.00;60892.56;4831479;28;20037;-88
2021/11/24 04:44:38;;;;;;;6.25;3.85;;;;;;;-145.06;0.00;60892.56;4838426;28;20038;-87
2021/11/24 04:47:20;;;;;;;7.05;4.05;;;;;;;-145.06;0.00;60892.56;4835038;28;20046;-88
2021/11/24 04:49:59;;;;;;;8.00;3.90;;;;;;;-145.06;0.00;60892.56;4836676;28;20109;-88
2021/11/24 04:52:39;;;;;;;7.67;4.00;;;;;;;7.07;0.00;60892.56;4832829;28;20042;-88
2021/11/24 04:55:21;;;;;;;8.05;4.32;;;;;;;7.04;0.00;60892.56;4835957;28;20060;-87
2021/11/24 04:58:00;;;;;;;11.15;5.80;;;;;;;7.07;0.00;60892.56;4836635;28;20519;-88
2021/11/24 05:00:39;;;;;;;8.07;5.28;;;;;;;7.11;0.00;60892.56;4832877;28;20018;-88
2021/11/24 05:03:18;;;;;;;7.82;4.85;;;;;;;7.03;0.00;60892.56;4836929;28;20030;-87
2021/11/24 05:05:57;;;;;;;8.57;5.30;;;;;;;-145.06;0.00;60892.56;4838828;28;20042;-88
2021/11/24 05:08:36;;;;;;;8.95;4.72;;;;;;;7.03;0.00;60892.56;4823907;28;20029;-87
2021/11/24 05:11:17;;;;;;;9.15;5.20;;;;;;;7.44;0.00;60892.56;4830000;28;20042;-87
2021/11/24 05:14:01;;;;;;;8.20;4.68;;;;;;;7.03;0.00;60892.56;4834378;28;20061;-88
2021/11/24 05:16:50;;;;;;;9.30;5.03;;;;;;;-145.06;0.00;60892.56;4826857;28;20061;-88
2021/11/24 05:19:31;;;;;;;8.93;4.93;;;;;;;-145.06;0.00;60892.56;4831597;28;20029;-88
2021/11/24 05:22:11;;;;;;;8.30;4.35;;;;;;;-145.06;0.00;60892.56;4837531;28;20463;-87
2021/11/24 05:24:50;;;;;;;7.68;4.72;;;;;;;-145.06;0.00;60892.56;4838222;28;20113;-87
2021/11/24 05:27:29;;;;;;;;;;;;;;;-145.06;0.00;60892.56;4833302;28;20493;-88
2021/11/24 05:30:14;;;;;;;6.95;4.10;;;;;;;-145.06;0.00;60892.56;4844966;28;19921;-87
2021/11/24 05:32:54;;;;;;;8.75;4.45;;;;;;;7.11;0.00;60892.56;4836735;28;20183;-88
2021/11/24 05:35:32;;;;;;;9.77;4.53;;;;;;;-145.06;0.00;60892.56;4829735;28;20057;-87
2021/11/24 05:38:11;;;;;;;8.00;4.57;;;;;;;7.44;0.00;60892.56;4838811;28;20066;-89
2021/11/24 05:40:50;;;;;;;7.43;4.30;;;;;;;7.07;0.00;60892.56;4837806;28;20050;-87
2021/11/24 05:43:30;;;;;;;8.40;4.18;;;;;;;7.03;0.00;60892.56;4832240;28;20377;-87
2021/11/24 05:46:28;;;;;;;9.50;4.70;;;;;;;7.03;0.00;60892.56;4831664;28;20389;-88
2021/11/24 05:49:06;;;;;;;8.00;4.05;;;;;;;-145.06;0.00;60892.56;4830817;28;20038;-88
2021/11/24 05:51:45;;;;;;;8.43;4.93;;;;;;;-145.06;0.00;60892.56;4829343;28;20057;-87
2021/11/24 05:54:25;;;;;;;8.70;4.80;;;;;;;-145.06;0.00;60892.56;4837892;28;20037;-88
2021/11/24 05:57:04;;;;;;;10.60;4.88;;;;;;;-145.06;0.00;60892.56;4835748;28;20380;-88
2021/11/24 05:59:43;;;;;;;10.68;5.13;;;;;;;7.03;0.00;60892.56;4831631;28;20049;-87
2021/11/24 06:02:22;;;;;;;11.98;5.50;;;;;;;8.08;0.00;60892.56;4834161;28;20030;-88
2021/11/24 06:05:00;;;;;;;10.80;5.80;;;;;;;-145.06;0.00;60892.56;4834482;28;20038;-88
2021/11/24 06:07:45;;;;;;;8.75;5.13;;;;;;;-145.06;0.00;60892.56;4838798;28;20037;-86
2021/11/24 06:10:24;;;;;;;8.80;5.60;;;;;;;-145.06;0.00;60892.56;4847509;28;20077;-88
2021/11/24 06:13:04;;;;;;;9.13;4.95;;;;;;;-145.06;0.00;60892.56;4836891;28;20034;-88
2021/11/24 06:15:43;;;;;;;10.50;5.47;;;;;;;8.08;0.00;60892.56;4830558;28;20041;-87
2021/11/24 06:18:22;;;;;;;10.37;5.50;;;;;;;-145.06;0.00;60892.56;4829130;28;20121;-87
2021/11/24 06:21:01;;;;;;;12.27;5.70;;;;;;;8.08;0.00;60892.56;4833916;28;20037;-88
2021/11/24 06:23:41;;;;;;;10.82;5.68;;;;;;;-145.06;0.00;60892.56;4833814;28;20037;-88
2021/11/24 06:26:21;;;;;;;10.63;5.90;;;;;;;-145.06;0.00;60892.56;4830818;28;20033;-88
2021/11/24 06:29:00;;;;;;;10.43;5.60;;;;;;;8.08;0.00;60892.56;4831725;28;20038;-87
2021/11/24 06:31:39;;;;;;;10.65;5.65;;;;;;;-145.06;0.00;60892.56;4835938;28;20034;-88
2021/11/24 06:34:19;;;;;;;12.63;5.97;;;;;;;-145.06;0.00;60892.56;4835044;28;20034;-88
2021/11/24 06:36:58;;;;;;;11.38;5.35;;;;;;;-145.06;0.00;60892.56;4834220;28;21089;-88
2021/11/24 06:39:37;;;;;;;9.45;4.68;;;;;;;7.44;0.00;60892.56;4830850;28;20026;-88
2021/11/24 06:42:16;;;;;;;9.23;4.93;;;;;;;-145.06;0.00;60892.56;4830278;28;20614;-88
2021/11/24 06:44:55;;;;;;;11.10;5.63;;;;;;;-145.06;0.00;60892.56;4829342;28;20120;-88
2021/11/24 06:47:35;;;;;;;11.65;5.20;;;;;;;7.03;0.00;60892.56;4828205;28;20372;-88
2021/11/24 06:50:14;;;;;;;;;;;;;;;-145.06;0.00;60892.56;4825590;28;20025;-88
2021/11/24 06:52:53;;;;;;;8.67;4.73;;;;;;;7.11;0.00;60892.56;4827366;28;19917;-89
2021/11/24 06:55:32;;;;;;;10.30;5.10;;;;;;;-145.06;0.00;60892.56;4828739;28;20026;-87
2021/11/24 06:58:12;;;;;;;8.35;4.80;;;;;;;7.03;0.00;60892.56;4828334;28;20038;-87
2021/11/24 07:00:52;;;;;;;10.93;5.10;;;;;;;-145.06;0.00;60892.56;4826156;28;20468;-87
2021/11/24 07:03:31;;;;;;;10.00;4.60;;;;;;;-145.06;0.00;60892.56;4829091;28;20025;-88
2021/11/24 07:06:10;;;;;;;8.30;4.93;;;;;;;-145.06;0.00;60892.56;4824649;28;20038;-89
2021/11/24 07:08:51;;;;;;;8.88;4.70;;;;;;;7.03;0.00;60892.56;4826755;28;20375;-88
2021/11/24 07:11:32;;;;;;;9.50;5.18;;;;;;;7.01;0.00;60892.56;4830650;28;20037;-87
2021/11/24 07:14:11;;;;;;;10.55;5.53;;;;;;;-145.06;0.00;60892.56;4830253;28;20208;-88
2021/11/24 07:16:50;;;;;;;10.73;5.13;;;;;;;8.08;0.00;60892.56;4831002;28;20034;-88
2021/11/24 07:19:29;;;;;;;12.70;6.67;;;;;;;7.11;0.00;60892.56;4828464;28;20039;-89
2021/11/24 07:22:08;;;;;;;11.43;6.15;;;;;;;7.44;0.00;60892.56;4831500;28;20033;-88
2021/11/24 07:24:48;;;;;;;13.57;5.90;;;;;;;-145.06;0.00;60892.56;4832770;28;20041;-89
2021/11/24 07:27:27;;;;;;;10.80;5.63;;;;;;;7.03;0.00;60892.56;4834267;28;20443;-89
2021/11/24 07:30:07;;;;;;;9.80;5.20;;;;;;;7.02;0.00;60892.56;4835105;28;20034;-89
2021/11/24 07:32:49;;;;;;;11.27;5.13;;;;;;;-145.06;0.00;60892.56;4826696;28;20037;-89
2021/11/24 07:35:28;;;;;;;10.10;5.32;;;;;;;-145.06;0.00;60892.56;4838193;28;20030;-88
2021/11/24 07:38:07;;;;;;;11.07;5.50;;;;;;;-145.06;0.00;60892.56;4827092;28;20038;-89
2021/11/24 07:40:46;;;;;;;10.13;5.32;;;;;;;-145.06;0.00;60892.56;4838786;28;20495;-88
2021/11/24 07:43:25;;;;;;;8.73;4.67;;;;;;;-145.06;0.00;60892.56;4835886;28;20112;-89
2021/11/24 07:46:04;;;;;;;8.93;5.03;;;;;;;-145.06;0.00;60892.56;4839425;28;20046;-88
2021/11/24 07:48:43;;;;;;;10.33;5.27;;;;;;;-145.06;0.00;60892.56;4836860;28;20424;-89
2021/11/24 07:51:22;;;;;;;9.80;5.53;;;;;;;-145.06;0.00;60892.56;4835812;28;20033;-88
2021/11/24 07:54:01;;;;;;;10.67;5.07;;;;;;;-145.06;0.00;60892.56;4837034;28;20124;-88
2021/11/24 07:56:41;;;;;;;12.23;5.88;;;;;;;-145.06;0.00;60892.56;4833684;28;20363;-89
2021/11/24 07:59:19;;;;;;;11.43;5.82;;;;;;;-145.06;0.00;60892.56;4835834;28;20492;-88
2021/11/24 08:01:59;;;;;;;13.10;5.80;;;;;;;-145.06;0.00;60892.56;4838796;28;20069;-88
2021/11/24 08:04:37;;;;;;;11.02;5.70;;;;;;;-145.06;0.00;60892.56;4837591;28;20026;-89
2021/11/24 08:07:16;;;;;;;11.43;5.90;;;;;;;-145.06;0.00;60892.56;4836782;28;20042;-89
2021/11/24 08:09:56;;;;;;;9.60;5.05;;;;;;;-145.06;0.00;60892.56;4836533;28;20041;-88
2021/11/24 08:12:35;;;;;;;9.48;5.18;;;;;;;-145.06;0.00;60892.56;4837063;28;20029;-87
2021/11/24 08:15:13;;;;;;;11.03;5.23;;;;;;;-145.06;0.00;60892.56;4836548;28;20526;-89
2021/11/24 08:17:53;;;;;;;11.35;5.80;;;;;;;-145.06;0.00;60892.56;4835515;28;20058;-88
2021/11/24 08:20:31;;;;;;;8.87;4.87;;;;;;;-145.06;0.00;60892.56;4835923;28;20053;-89
2021/11/24 08:23:10;;;;;;;10.38;5.60;;;;;;;-145.06;0.00;60892.56;4835701;28;20479;-89
2021/11/24 08:25:52;;;;;;;13.35;5.78;;;;;;;-145.06;0.00;60892.56;4833451;28;20034;-87
2021/11/24 08:28:31;;;;;;;11.93;5.65;;;;;;;-145.06;0.00;60892.56;4831833;28;20034;-90
2021/11/24 08:31:10;;;;;;;10.30;5.20;;;;;;;-145.06;0.00;60892.56;4835874;28;20060;-89
2021/11/24 08:33:49;;;;;;;10.18;5.22;;;;;;;-145.06;0.00;60892.56;4835460;28;20030;-88
2021/11/24 08:36:28;;;;;;;12.60;6.23;;;;;;;21.08;0.00;60892.56;4829760;28;20037;-88
2021/11/24 08:39:08;;;;;;;13.68;6.20;;;;;;;-145.06;0.00;60892.56;4837412;28;20069;-88
2021/11/24 08:41:47;;;;;;;11.18;5.47;;;;;;;-145.06;0.00;60892.56;4836646;28;20053;-89
2021/11/24 08:44:34;;;;;;;14.40;6.88;;;;;;;-145.06;0.00;60892.56;4833963;28;20045;-89
2021/11/24 08:47:14;;;;;;;11.02;5.57;;;;;;;-145.06;0.00;60892.56;4838830;28;20041;-88
2021/11/24 08:49:52;;;;;;;11.45;6.03;;;;;;;-145.06;0.00;60892.56;4838566;28;20030;-89
2021/11/24 08:52:32;;;;;;;8.90;4.87;;;;;;;-145.06;0.00;60892.56;4834370;28;20427;-88
2021/11/24 08:55:11;;;;;;;9.45;5.20;;;;;;;-145.06;0.00;60892.56;4828239;28;20034;-89
2021/11/24 08:57:51;;;;;;;;;;;;;;;-145.06;0.00;60892.56;4833099;28;20042;-89
2021/11/24 09:00:30;;;;;;;9.35;4.65;;;;;;;-145.06;0.00;60892.56;4836237;28;19913;-89
2021/11/24 09:03:12;;;;;;;9.13;4.68;;;;;;;-145.06;0.00;60892.56;4832052;28;20038;-89
2021/11/24 09:05:51;;;;;;;11.32;5.18;;;;;;;-145.06;0.00;60892.56;4838176;28;20025;-89
2021/11/24 09:08:30;;;;;;;10.70;5.20;;;;;;;-145.06;0.00;60892.56;4829212;28;20026;-89
2021/11/24 09:11:09;;;;;;;8.75;4.88;;;;;;;-145.06;0.00;60892.56;4836105;28;20273;-88
2021/11/24 09:13:48;;;;;;;10.35;4.78;;;;;;;-145.06;0.00;60892.56;4832679;28;20050;-88
2021/11/24 09:16:27;;;;;;;10.40;5.22;;;;;;;-145.06;0.00;60892.56;4835823;28;20061;-88
2021/11/24 09:19:06;;;;;;;10.10;5.47;;;;;;;-145.06;0.00;60892.56;4835876;28;20033;-89
2021/11/24 09:21:45;;;;;;;11.73;5.63;;;;;;;8.08;0.00;60892.56;4835398;28;20483;-88
2021/11/24 09:24:27;;;;;;;10.80;5.60;;;;;;;7.76;0.00;60892.56;4835563;28;20491;-89
2021/11/24 09:27:17;;;;;;;8.90;4.78;;;;;;;-145.06;0.00;60892.56;4840017;28;20042;-89
2021/11/24 09:29:58;;;;;;;10.00;5.05;;;;;;;-145.06;0.00;60892.56;4854589;28;20034;-89
2021/11/24 09:32:41;;;;;;;11.68;5.95;;;;;;;-145.06;0.00;60892.56;4846248;28;20041;-87
2021/11/24 09:35:20;;;;;;;10.35;5.63;;;;;;;-145.06;0.00;60892.56;4834017;28;20038;-89
2021/11/24 09:38:01;;;;;;;10.38;5.32;;;;;;;-145.06;0.00;60892.56;4834625;28;20424;-88
2021/11/24 09:40:41;;;;;;;9.73;5.35;;;;;;;7.77;0.00;60892.56;4834904;28;20037;-89
2021/11/24 09:43:20;;;;;;;;;;;;;;;7.78;0.00;60892.56;4835038;28;20038;-88
2021/11/24 09:46:06;;;;;;;8.50;4.70;;;;;;;10.68;0.00;60892.56;4847223;28;19913;-89
2021/11/24 09:48:50;;;;;;;8.45;4.75;;;;;;;8.08;0.00;60892.56;4846558;28;20619;-89
2021/11/24 09:51:33;;;;;;;9.60;5.22;;;;;;;-145.06;0.00;60892.56;4834563;28;20034;-88
2021/11/24 09:54:18;;;;;;;10.18;5.80;;;;;;;-145.06;0.00;60892.56;4832928;28;20034;-88
2021/11/24 09:57:04;;;;;;;9.40;5.18;;;;;;;-145.06;0.00;60892.56;4833010;28;20112;-88
2021/11/24 09:59:46;;;;;;;10.40;5.82;;;;;;;-145.06;0.00;60892.56;4836374;28;20364;-89
2021/11/24 10:02:25;;;;;;;8.15;4.78;;;;;;;8.03;0.00;60892.56;4832050;28;20033;-90
2021/11/24 10:05:04;;;;;;;8.20;4.47;;;;;;;10.68;0.00;60892.56;4832161;28;20038;-88
2021/11/24 10:07:44;;;;;;;;;;;;;;;8.05;0.00;60892.56;4837486;28;20782;-89
2021/11/24 10:10:24;;;;;;;7.97;4.50;;;;;;;8.06;0.00;60892.56;4835297;28;19952;-89
2021/11/24 10:13:14;;;;;;;9.07;4.68;;;;;;;-145.06;0.00;60892.56;4833977;28;20034;-88
2021/11/24 10:15:56;;;;;;;7.22;4.18;;;;;;;8.41;0.00;60892.56;4831272;28;20372;-88
2021/11/24 10:18:38;;;;;;;10.10;5.03;;;;;;;-145.06;0.00;60892.56;4828079;28;20475;-89
2021/11/24 10:21:20;;;;;;;8.43;4.82;;;;;;;-145.06;0.00;60892.56;4835352;28;20033;-88
2021/11/24 10:24:03;;;;;;;9.73;4.88;;;;;;;-145.06;0.00;60892.56;4835469;28;20034;-88
2021/11/24 10:26:42;;;;;;;7.45;4.72;;;;;;;-145.06;0.00;60892.56;4835388;28;20045;-89
2021/11/24 10:29:26;;;;;;;6.63;3.92;;;;;;;-145.06;0.00;60892.56;4836115;28;20037;-88
2021/11/24 10:32:11;;;;;;;6.63;3.80;;;;;;;-145.06;0.00;60892.56;4835496;28;20038;-89
2021/11/24 10:34:50;;;;;;;6.88;4.40;;;;;;;-145.06;0.00;60892.56;4836238;28;20416;-89
2021/11/24 10:37:30;;;;;;;6.97;4.10;;;;;;;-145.06;0.00;60892.56;4834877;28;20034;-88
2021/11/24 10:40:09;;;;;;;5.75;3.80;;;;;;;-145.06;0.00;60892.56;4836429;28;20041;-88
2021/11/24 10:42:51;;;;;;;4.65;3.25;;;;;;;-145.06;0.00;60892.56;4835702;28;20030;-86
2021/11/24 10:45:33;;;;;;;7.18;4.10;;;;;;;-145.06;0.00;60892.56;4830407;28;20042;-89
2021/11/24 10:48:16;;;;;;;6.35;4.10;;;;;;;-145.06;0.00;60892.56;4830017;28;20624;-88
2021/11/24 10:51:18;;;;;;;6.82;4.35;;;;;;;-145.06;0.00;60892.56;4832879;28;20030;-88
2021/11/24 10:54:23;;;;;;;5.60;3.75;;;;;;;-145.06;0.00;60892.56;4831772;28;20037;-88
2021/11/24 10:57:09;;;;;;;6.03;3.45;;;;;;;-145.06;0.00;60892.56;4817867;28;20046;-88
2021/11/24 10:59:48;;;;;;;6.15;3.80;;;;;;;-145.06;0.00;60892.56;4831336;28;20796;-89
2021/11/24 11:02:33;;;;;;;5.80;4.10;;;;;;;-145.06;0.00;60892.56;4832380;28;20038;-89
2021/11/24 11:05:24;;;;;;;5.63;3.70;;;;;;;-145.06;0.00;60892.56;4830047;28;20034;-89
2021/11/24 11:08:17;;;;;;;4.78;3.58;;;;;;;-145.06;0.00;60892.56;4836356;28;20034;-88
2021/11/24 11:11:05;;;;;;;5.07;3.17;;;;;;;-145.06;0.00;60892.56;4828446;28;20432;-88
2021/11/24 11:13:45;;;;;;;4.82;2.92;;;;;;;8.89;0.00;60892.56;4833767;28;20129;-89
2021/11/24 11:16:42;;;;;;;4.55;2.92;;;;;;;8.90;0.00;60892.56;4847506;28;20037;-87
2021/11/24 11:19:37;;;;;;;5.63;3.53;;;;;;;-145.06;0.00;60892.56;4836229;28;20104;-89
2021/11/24 11:22:20;;;;;;;4.38;2.90;;;;;;;-145.06;0.00;60892.56;4835269;28;20029;-89
2021/11/24 11:24:59;;;;;;;4.50;3.00;;;;;;;-145.06;0.00;60892.56;4838165;28;20033;-89
2021/11/24 11:27:39;;;;;;;5.82;3.45;;;;;;;-145.06;0.00;60892.56;4838382;28;20033;-88
2021/11/24 11:30:20;;;;;;;;;;;;;;;187.52;0.00;60892.56;4830752;28;20030;-89
2021/11/24 11:33:01;;;;;;;4.28;2.95;;;;;;;9.12;0.00;60892.56;4838687;28;19909;-88
2021/11/24 11:35:42;;;;;;;3.47;2.40;;;;;;;-145.06;0.00;60892.56;4833072;28;20764;-89
2021/11/24 11:38:21;;;;;;;3.85;2.72;;;;;;;9.20;0.00;60892.56;4837361;28;20364;-90
2021/11/24 11:41:05;;;;;;;4.18;2.70;;;;;;;-145.06;0.00;60892.56;4836105;28;20384;-88
2021/11/24 11:43:49;;;;;;;3.88;2.40;;;;;;;-145.06;0.00;60892.56;4832865;28;20377;-87
2021/11/24 11:46:56;;;;;;;2.85;2.10;;;;;;;9.24;0.00;60892.56;4831400;28;20058;-88
2021/11/24 11:49:43;;;;;;;4.53;2.70;;;;;;;-145.06;0.00;60892.56;4832723;28;20030;-89
2021/11/24 11:52:22;;;;;;;4.25;2.30;;;;;;;-145.06;0.00;60892.56;4837303;28;20487;-90
2021/11/24 11:55:24;;;;;;;2.67;1.88;;;;;;;9.23;0.00;60892.56;4830090;28;20105;-88
2021/11/24 11:58:25;;;;;;;3.00;1.83;;;;;;;-145.06;0.00;60892.56;4831359;28;20033;-88
2021/11/24 12:01:04;;;;;;;2.20;1.70;;;;;;;-145.06;0.00;60892.56;4836410;28;20034;-89
2021/11/24 12:04:27;;;;;;;2.13;1.40;;;;;;;-145.06;0.00;60892.56;4834836;28;20109;-89
2021/11/24 12:07:11;;;;;;;2.33;1.60;;;;;;;-145.06;0.00;60892.56;4808459;28;20340;-88
2021/11/24 12:10:00;;;;;;;1.90;1.35;;;;;;;-145.06;0.00;60892.56;4840875;28;20026;-89
2021/11/24 12:12:41;;;;;;;2.00;1.23;;;;;;;-145.06;0.00;60892.56;4835270;28;20025;-89
2021/11/24 12:15:28;;;;;;;2.80;1.67;;;;;;;187.52;0.00;60892.56;4842783;28;20261;-89
2021/11/24 12:18:14;;;;;;;2.70;1.50;;;;;;;-145.06;0.00;60892.56;4834090;28;20117;-89
2021/11/24 12:20:53;;;;;;;2.22;1.30;;;;;;;9.38;0.00;60892.56;4838310;28;20034;-89
2021/11/24 12:23:33;;;;;;;1.95;1.00;;;;;;;-145.06;0.00;60892.56;4830084;28;20105;-89
2021/11/24 12:26:18;;;;;;;1.00;0.90;;;;;;;-145.06;0.00;60892.56;4834743;28;20041;-89
2021/11/24 12:29:42;;;;;;;1.77;1.20;;;;;;;-145.06;0.00;60892.56;4830818;28;20038;-89
2021/11/24 12:32:25;;;;;;;1.90;1.23;;;;;;;-145.06;0.00;60892.56;4834223;28;20030;-88
2021/11/24 12:35:07;;;;;;;1.52;0.98;;;;;;;-145.06;0.00;60892.56;4833964;28;20483;-88